sensor_id;sensor_type;location;lat;lon;timestamp;P1;durP1;ratioP1;P2;durP2;ratioP2
16640;SDS011;8434;47.990;7.880;2023-05-07T00:01:26;5.30;;;2.83;;
16640;SDS011;8434;47.990;7.880;2023-05-07T00:04:11;4.50;;;3.10;;
16640;SDS011;8434;47.990;7.880;2023-05-07T00:06:57;6.23;;;3.00;;
16640;SDS011;8434;47.990;7.880;2023-05-07T00:09:42;3.90;;;2.93;;
16640;SDS011;8434;47.990;7.880;2023-05-07T00:12:29;4.43;;;3.03;;
16640;SDS011;8434;47.990;7.880;2023-05-07T00:15:15;6.87;;;3.20;;
16640;SDS011;8434;47.990;7.880;2023-05-07T00:18:00;3.50;;;3.20;;
16640;SDS011;8434;47.990;7.880;2023-05-07T00:20:45;4.33;;;3.13;;
16640;SDS011;8434;47.990;7.880;2023-05-07T00:23:31;5.47;;;3.40;;
16640;SDS011;8434;47.990;7.880;2023-05-07T00:26:16;4.37;;;3.50;;
16640;SDS011;8434;47.990;7.880;2023-05-07T00:29:04;4.57;;;3.13;;
16640;SDS011;8434;47.990;7.880;2023-05-07T00:31:50;5.47;;;3.50;;
16640;SDS011;8434;47.990;7.880;2023-05-07T00:34:36;4.77;;;3.13;;
16640;SDS011;8434;47.990;7.880;2023-05-07T00:37:21;3.97;;;3.57;;
16640;SDS011;8434;47.990;7.880;2023-05-07T00:40:07;4.07;;;3.37;;
16640;SDS011;8434;47.990;7.880;2023-05-07T00:42:52;5.53;;;3.33;;
16640;SDS011;8434;47.990;7.880;2023-05-07T00:45:42;6.80;;;3.33;;
16640;SDS011;8434;47.990;7.880;2023-05-07T00:48:28;6.37;;;3.40;;
16640;SDS011;8434;47.990;7.880;2023-05-07T00:51:13;4.27;;;2.90;;
16640;SDS011;8434;47.990;7.880;2023-05-07T00:53:59;5.83;;;3.00;;
16640;SDS011;8434;47.990;7.880;2023-05-07T00:56:44;6.07;;;3.53;;
16640;SDS011;8434;47.990;7.880;2023-05-07T00:59:30;3.73;;;3.07;;
16640;SDS011;8434;47.990;7.880;2023-05-07T01:02:17;4.30;;;3.40;;
16640;SDS011;8434;47.990;7.880;2023-05-07T01:05:03;4.00;;;2.83;;
16640;SDS011;8434;47.990;7.880;2023-05-07T01:07:50;4.10;;;3.07;;
16640;SDS011;8434;47.990;7.880;2023-05-07T01:10:37;4.13;;;3.07;;
16640;SDS011;8434;47.990;7.880;2023-05-07T01:13:26;4.00;;;3.63;;
16640;SDS011;8434;47.990;7.880;2023-05-07T01:16:12;3.30;;;3.00;;
16640;SDS011;8434;47.990;7.880;2023-05-07T01:19:01;3.40;;;2.80;;
16640;SDS011;8434;47.990;7.880;2023-05-07T01:21:46;3.50;;;2.60;;
16640;SDS011;8434;47.990;7.880;2023-05-07T01:24:35;4.53;;;2.80;;
16640;SDS011;8434;47.990;7.880;2023-05-07T01:27:22;3.37;;;2.80;;
16640;SDS011;8434;47.990;7.880;2023-05-07T01:30:09;7.23;;;2.83;;
16640;SDS011;8434;47.990;7.880;2023-05-07T01:32:56;6.00;;;3.10;;
16640;SDS011;8434;47.990;7.880;2023-05-07T01:35:45;2.77;;;2.57;;
16640;SDS011;8434;47.990;7.880;2023-05-07T01:38:31;6.10;;;2.90;;
16640;SDS011;8434;47.990;7.880;2023-05-07T01:41:18;3.20;;;2.90;;
16640;SDS011;8434;47.990;7.880;2023-05-07T01:44:04;4.10;;;2.80;;
16640;SDS011;8434;47.990;7.880;2023-05-07T01:46:50;4.60;;;3.10;;
16640;SDS011;8434;47.990;7.880;2023-05-07T01:49:35;3.73;;;3.10;;
16640;SDS011;8434;47.990;7.880;2023-05-07T01:52:25;4.23;;;3.23;;
16640;SDS011;8434;47.990;7.880;2023-05-07T01:55:10;4.30;;;2.97;;
16640;SDS011;8434;47.990;7.880;2023-05-07T01:57:58;3.63;;;2.97;;
16640;SDS011;8434;47.990;7.880;2023-05-07T02:00:43;3.47;;;2.77;;
16640;SDS011;8434;47.990;7.880;2023-05-07T02:03:28;7.00;;;2.93;;
16640;SDS011;8434;47.990;7.880;2023-05-07T02:06:22;4.77;;;2.80;;
16640;SDS011;8434;47.990;7.880;2023-05-07T02:09:13;3.87;;;2.70;;
16640;SDS011;8434;47.990;7.880;2023-05-07T02:12:01;5.43;;;3.00;;
16640;SDS011;8434;47.990;7.880;2023-05-07T02:14:48;6.10;;;2.97;;
16640;SDS011;8434;47.990;7.880;2023-05-07T02:17:34;5.00;;;2.60;;
16640;SDS011;8434;47.990;7.880;2023-05-07T02:20:21;8.63;;;3.13;;
16640;SDS011;8434;47.990;7.880;2023-05-07T02:23:06;5.27;;;2.70;;
16640;SDS011;8434;47.990;7.880;2023-05-07T02:25:52;7.73;;;2.73;;
16640;SDS011;8434;47.990;7.880;2023-05-07T02:28:37;4.43;;;2.67;;
16640;SDS011;8434;47.990;7.880;2023-05-07T02:31:25;3.67;;;3.20;;
16640;SDS011;8434;47.990;7.880;2023-05-07T02:34:11;3.33;;;2.40;;
16640;SDS011;8434;47.990;7.880;2023-05-07T02:36:56;3.13;;;2.50;;
16640;SDS011;8434;47.990;7.880;2023-05-07T02:39:44;4.13;;;2.83;;
16640;SDS011;8434;47.990;7.880;2023-05-07T02:42:29;2.93;;;2.50;;
16640;SDS011;8434;47.990;7.880;2023-05-07T02:45:15;4.00;;;2.70;;
16640;SDS011;8434;47.990;7.880;2023-05-07T02:48:03;4.33;;;2.77;;
16640;SDS011;8434;47.990;7.880;2023-05-07T02:50:49;4.17;;;2.77;;
16640;SDS011;8434;47.990;7.880;2023-05-07T02:53:35;2.83;;;2.50;;
16640;SDS011;8434;47.990;7.880;2023-05-07T02:56:20;3.00;;;2.70;;
16640;SDS011;8434;47.990;7.880;2023-05-07T02:59:06;4.83;;;2.83;;
16640;SDS011;8434;47.990;7.880;2023-05-07T03:01:56;5.60;;;2.80;;
16640;SDS011;8434;47.990;7.880;2023-05-07T03:04:43;3.97;;;2.70;;
16640;SDS011;8434;47.990;7.880;2023-05-07T03:07:28;3.50;;;2.80;;
16640;SDS011;8434;47.990;7.880;2023-05-07T03:10:13;3.00;;;2.70;;
16640;SDS011;8434;47.990;7.880;2023-05-07T03:13:00;4.20;;;2.33;;
16640;SDS011;8434;47.990;7.880;2023-05-07T03:15:45;4.43;;;2.47;;
16640;SDS011;8434;47.990;7.880;2023-05-07T03:18:31;4.10;;;2.40;;
16640;SDS011;8434;47.990;7.880;2023-05-07T03:21:18;3.70;;;2.50;;
16640;SDS011;8434;47.990;7.880;2023-05-07T03:24:03;3.73;;;3.00;;
16640;SDS011;8434;47.990;7.880;2023-05-07T03:26:49;6.27;;;2.97;;
16640;SDS011;8434;47.990;7.880;2023-05-07T03:29:35;4.87;;;2.93;;
16640;SDS011;8434;47.990;7.880;2023-05-07T03:32:20;3.87;;;2.97;;
16640;SDS011;8434;47.990;7.880;2023-05-07T03:35:06;3.73;;;2.80;;
16640;SDS011;8434;47.990;7.880;2023-05-07T03:37:53;7.93;;;3.30;;
16640;SDS011;8434;47.990;7.880;2023-05-07T03:40:40;4.80;;;3.40;;
16640;SDS011;8434;47.990;7.880;2023-05-07T03:43:26;4.53;;;3.50;;
16640;SDS011;8434;47.990;7.880;2023-05-07T03:46:19;3.73;;;3.37;;
16640;SDS011;8434;47.990;7.880;2023-05-07T03:49:05;4.47;;;3.80;;
16640;SDS011;8434;47.990;7.880;2023-05-07T03:51:51;4.60;;;4.00;;
16640;SDS011;8434;47.990;7.880;2023-05-07T03:54:38;4.10;;;3.70;;
16640;SDS011;8434;47.990;7.880;2023-05-07T03:57:24;5.37;;;3.50;;
16640;SDS011;8434;47.990;7.880;2023-05-07T04:00:10;2.90;;;2.60;;
16640;SDS011;8434;47.990;7.880;2023-05-07T04:03:04;2.90;;;2.60;;
16640;SDS011;8434;47.990;7.880;2023-05-07T04:05:50;9.17;;;3.80;;
16640;SDS011;8434;47.990;7.880;2023-05-07T04:08:35;4.63;;;3.83;;
16640;SDS011;8434;47.990;7.880;2023-05-07T04:11:24;5.30;;;3.57;;
16640;SDS011;8434;47.990;7.880;2023-05-07T04:14:10;5.63;;;3.50;;
16640;SDS011;8434;47.990;7.880;2023-05-07T04:16:55;3.50;;;3.20;;
16640;SDS011;8434;47.990;7.880;2023-05-07T04:19:41;3.67;;;3.30;;
16640;SDS011;8434;47.990;7.880;2023-05-07T04:22:29;5.97;;;3.73;;
16640;SDS011;8434;47.990;7.880;2023-05-07T04:25:15;4.87;;;3.80;;
16640;SDS011;8434;47.990;7.880;2023-05-07T04:28:03;4.90;;;3.80;;
16640;SDS011;8434;47.990;7.880;2023-05-07T04:30:48;8.40;;;4.00;;
16640;SDS011;8434;47.990;7.880;2023-05-07T04:33:34;4.07;;;2.80;;
16640;SDS011;8434;47.990;7.880;2023-05-07T04:36:20;4.80;;;3.20;;
16640;SDS011;8434;47.990;7.880;2023-05-07T04:39:15;3.93;;;3.50;;
16640;SDS011;8434;47.990;7.880;2023-05-07T04:42:04;3.73;;;3.20;;
16640;SDS011;8434;47.990;7.880;2023-05-07T04:44:53;3.87;;;2.90;;
16640;SDS011;8434;47.990;7.880;2023-05-07T04:47:40;3.50;;;3.13;;
16640;SDS011;8434;47.990;7.880;2023-05-07T04:50:26;4.30;;;3.00;;
16640;SDS011;8434;47.990;7.880;2023-05-07T04:53:15;5.77;;;3.60;;
16640;SDS011;8434;47.990;7.880;2023-05-07T04:56:01;5.00;;;3.70;;
16640;SDS011;8434;47.990;7.880;2023-05-07T04:58:56;4.67;;;3.40;;
16640;SDS011;8434;47.990;7.880;2023-05-07T05:01:43;3.43;;;3.13;;
16640;SDS011;8434;47.990;7.880;2023-05-07T05:04:28;5.53;;;3.57;;
16640;SDS011;8434;47.990;7.880;2023-05-07T05:07:14;5.57;;;3.70;;
16640;SDS011;8434;47.990;7.880;2023-05-07T05:10:01;4.57;;;3.13;;
16640;SDS011;8434;47.990;7.880;2023-05-07T05:12:48;5.83;;;3.27;;
16640;SDS011;8434;47.990;7.880;2023-05-07T05:15:34;3.87;;;3.40;;
16640;SDS011;8434;47.990;7.880;2023-05-07T05:18:22;3.43;;;3.00;;
16640;SDS011;8434;47.990;7.880;2023-05-07T05:21:07;5.93;;;3.33;;
16640;SDS011;8434;47.990;7.880;2023-05-07T05:23:52;5.23;;;3.20;;
16640;SDS011;8434;47.990;7.880;2023-05-07T05:26:41;4.20;;;3.03;;
16640;SDS011;8434;47.990;7.880;2023-05-07T05:29:27;3.57;;;3.13;;
16640;SDS011;8434;47.990;7.880;2023-05-07T05:32:13;4.17;;;3.40;;
16640;SDS011;8434;47.990;7.880;2023-05-07T05:35:00;4.40;;;3.30;;
16640;SDS011;8434;47.990;7.880;2023-05-07T05:37:46;4.60;;;3.20;;
16640;SDS011;8434;47.990;7.880;2023-05-07T05:40:33;5.40;;;3.53;;
16640;SDS011;8434;47.990;7.880;2023-05-07T05:43:19;4.33;;;2.80;;
16640;SDS011;8434;47.990;7.880;2023-05-07T05:46:05;3.37;;;3.07;;
16640;SDS011;8434;47.990;7.880;2023-05-07T05:48:52;4.87;;;3.00;;
16640;SDS011;8434;47.990;7.880;2023-05-07T05:51:40;4.67;;;3.07;;
16640;SDS011;8434;47.990;7.880;2023-05-07T05:54:25;3.60;;;3.10;;
16640;SDS011;8434;47.990;7.880;2023-05-07T05:57:11;5.00;;;3.33;;
16640;SDS011;8434;47.990;7.880;2023-05-07T05:59:57;3.80;;;3.10;;
16640;SDS011;8434;47.990;7.880;2023-05-07T06:02:42;3.93;;;2.90;;
16640;SDS011;8434;47.990;7.880;2023-05-07T06:05:28;5.57;;;3.03;;
16640;SDS011;8434;47.990;7.880;2023-05-07T06:08:15;3.83;;;2.80;;
16640;SDS011;8434;47.990;7.880;2023-05-07T06:11:01;3.03;;;2.77;;
16640;SDS011;8434;47.990;7.880;2023-05-07T06:13:49;3.30;;;2.93;;
16640;SDS011;8434;47.990;7.880;2023-05-07T06:16:34;4.07;;;2.97;;
16640;SDS011;8434;47.990;7.880;2023-05-07T06:19:20;2.73;;;2.53;;
16640;SDS011;8434;47.990;7.880;2023-05-07T06:22:08;3.53;;;2.57;;
16640;SDS011;8434;47.990;7.880;2023-05-07T06:24:55;3.00;;;2.30;;
16640;SDS011;8434;47.990;7.880;2023-05-07T06:27:41;2.90;;;2.65;;
16640;SDS011;8434;47.990;7.880;2023-05-07T06:30:26;6.10;;;3.00;;
16640;SDS011;8434;47.990;7.880;2023-05-07T06:33:12;3.13;;;2.83;;
16640;SDS011;8434;47.990;7.880;2023-05-07T06:35:58;6.15;;;2.72;;
16640;SDS011;8434;47.990;7.880;2023-05-07T06:38:44;3.30;;;2.83;;
16640;SDS011;8434;47.990;7.880;2023-05-07T06:41:31;5.15;;;3.50;;
16640;SDS011;8434;47.990;7.880;2023-05-07T06:44:23;3.47;;;2.67;;
16640;SDS011;8434;47.990;7.880;2023-05-07T06:47:26;3.30;;;2.60;;
16640;SDS011;8434;47.990;7.880;2023-05-07T06:50:13;5.63;;;2.95;;
16640;SDS011;8434;47.990;7.880;2023-05-07T06:53:01;4.38;;;2.75;;
16640;SDS011;8434;47.990;7.880;2023-05-07T06:55:47;6.35;;;3.35;;
16640;SDS011;8434;47.990;7.880;2023-05-07T06:58:38;3.92;;;2.60;;
16640;SDS011;8434;47.990;7.880;2023-05-07T07:01:24;4.05;;;2.53;;
16640;SDS011;8434;47.990;7.880;2023-05-07T07:04:09;5.90;;;3.25;;
16640;SDS011;8434;47.990;7.880;2023-05-07T07:06:56;4.35;;;2.50;;
16640;SDS011;8434;47.990;7.880;2023-05-07T07:09:42;3.00;;;2.70;;
16640;SDS011;8434;47.990;7.880;2023-05-07T07:12:28;3.25;;;2.97;;
16640;SDS011;8434;47.990;7.880;2023-05-07T07:15:15;3.85;;;2.60;;
16640;SDS011;8434;47.990;7.880;2023-05-07T07:18:02;3.20;;;2.42;;
16640;SDS011;8434;47.990;7.880;2023-05-07T07:20:47;3.63;;;2.63;;
16640;SDS011;8434;47.990;7.880;2023-05-07T07:23:32;3.40;;;3.10;;
16640;SDS011;8434;47.990;7.880;2023-05-07T07:26:18;2.90;;;2.53;;
16640;SDS011;8434;47.990;7.880;2023-05-07T07:29:03;5.35;;;3.00;;
16640;SDS011;8434;47.990;7.880;2023-05-07T07:31:50;2.67;;;2.47;;
16640;SDS011;8434;47.990;7.880;2023-05-07T07:34:37;3.25;;;2.65;;
16640;SDS011;8434;47.990;7.880;2023-05-07T07:37:22;3.40;;;2.60;;
16640;SDS011;8434;47.990;7.880;2023-05-07T07:40:09;3.33;;;2.92;;
16640;SDS011;8434;47.990;7.880;2023-05-07T07:42:56;3.50;;;2.85;;
16640;SDS011;8434;47.990;7.880;2023-05-07T07:45:41;3.75;;;3.03;;
16640;SDS011;8434;47.990;7.880;2023-05-07T07:48:28;5.20;;;2.72;;
16640;SDS011;8434;47.990;7.880;2023-05-07T07:51:14;2.63;;;2.42;;
16640;SDS011;8434;47.990;7.880;2023-05-07T07:53:59;3.15;;;2.85;;
16640;SDS011;8434;47.990;7.880;2023-05-07T07:56:47;3.50;;;2.70;;
16640;SDS011;8434;47.990;7.880;2023-05-07T07:59:33;5.80;;;2.95;;
16640;SDS011;8434;47.990;7.880;2023-05-07T08:02:19;3.75;;;2.78;;
16640;SDS011;8434;47.990;7.880;2023-05-07T08:05:06;3.67;;;2.70;;
16640;SDS011;8434;47.990;7.880;2023-05-07T08:07:52;4.35;;;2.75;;
16640;SDS011;8434;47.990;7.880;2023-05-07T08:10:42;4.03;;;2.88;;
16640;SDS011;8434;47.990;7.880;2023-05-07T08:13:36;3.63;;;3.33;;
16640;SDS011;8434;47.990;7.880;2023-05-07T08:16:21;5.18;;;2.95;;
16640;SDS011;8434;47.990;7.880;2023-05-07T08:19:06;2.85;;;2.65;;
16640;SDS011;8434;47.990;7.880;2023-05-07T08:21:54;3.67;;;2.75;;
16640;SDS011;8434;47.990;7.880;2023-05-07T08:24:40;3.45;;;3.15;;
16640;SDS011;8434;47.990;7.880;2023-05-07T08:27:26;4.13;;;2.80;;
16640;SDS011;8434;47.990;7.880;2023-05-07T08:30:12;2.70;;;2.50;;
16640;SDS011;8434;47.990;7.880;2023-05-07T08:32:58;2.88;;;2.65;;
16640;SDS011;8434;47.990;7.880;2023-05-07T08:35:43;3.15;;;2.85;;
16640;SDS011;8434;47.990;7.880;2023-05-07T08:38:32;3.90;;;2.92;;
16640;SDS011;8434;47.990;7.880;2023-05-07T08:41:18;3.65;;;2.75;;
16640;SDS011;8434;47.990;7.880;2023-05-07T08:44:04;3.42;;;2.80;;
16640;SDS011;8434;47.990;7.880;2023-05-07T08:46:51;3.53;;;2.80;;
16640;SDS011;8434;47.990;7.880;2023-05-07T08:49:39;3.30;;;3.00;;
16640;SDS011;8434;47.990;7.880;2023-05-07T08:52:26;2.92;;;2.60;;
16640;SDS011;8434;47.990;7.880;2023-05-07T08:55:13;4.38;;;3.22;;
16640;SDS011;8434;47.990;7.880;2023-05-07T08:57:59;2.92;;;2.65;;
16640;SDS011;8434;47.990;7.880;2023-05-07T09:00:47;3.97;;;3.20;;
16640;SDS011;8434;47.990;7.880;2023-05-07T09:03:32;4.70;;;3.05;;
16640;SDS011;8434;47.990;7.880;2023-05-07T09:06:18;5.45;;;3.20;;
16640;SDS011;8434;47.990;7.880;2023-05-07T09:09:04;3.45;;;3.13;;
16640;SDS011;8434;47.990;7.880;2023-05-07T09:11:57;3.38;;;3.03;;
16640;SDS011;8434;47.990;7.880;2023-05-07T09:14:45;3.60;;;2.95;;
16640;SDS011;8434;47.990;7.880;2023-05-07T09:17:31;4.07;;;3.50;;
16640;SDS011;8434;47.990;7.880;2023-05-07T09:20:16;4.35;;;3.13;;
16640;SDS011;8434;47.990;7.880;2023-05-07T09:23:02;4.95;;;3.03;;
16640;SDS011;8434;47.990;7.880;2023-05-07T09:25:48;3.58;;;3.08;;
16640;SDS011;8434;47.990;7.880;2023-05-07T09:28:41;4.30;;;3.05;;
16640;SDS011;8434;47.990;7.880;2023-05-07T09:31:29;4.28;;;3.88;;
16640;SDS011;8434;47.990;7.880;2023-05-07T09:34:15;4.55;;;4.00;;
16640;SDS011;8434;47.990;7.880;2023-05-07T09:37:03;4.15;;;3.58;;
16640;SDS011;8434;47.990;7.880;2023-05-07T09:39:50;3.88;;;3.30;;
16640;SDS011;8434;47.990;7.880;2023-05-07T09:42:39;3.85;;;2.97;;
16640;SDS011;8434;47.990;7.880;2023-05-07T09:45:26;3.30;;;3.00;;
16640;SDS011;8434;47.990;7.880;2023-05-07T09:48:12;3.67;;;2.92;;
16640;SDS011;8434;47.990;7.880;2023-05-07T09:51:01;4.30;;;2.80;;
16640;SDS011;8434;47.990;7.880;2023-05-07T09:53:50;2.90;;;2.38;;
16640;SDS011;8434;47.990;7.880;2023-05-07T09:56:37;3.42;;;3.13;;
16640;SDS011;8434;47.990;7.880;2023-05-07T09:59:23;3.60;;;2.67;;
16640;SDS011;8434;47.990;7.880;2023-05-07T10:02:11;3.70;;;3.15;;
16640;SDS011;8434;47.990;7.880;2023-05-07T10:05:04;3.70;;;3.08;;
16640;SDS011;8434;47.990;7.880;2023-05-07T10:07:51;4.13;;;3.42;;
16640;SDS011;8434;47.990;7.880;2023-05-07T10:10:38;5.65;;;2.92;;
16640;SDS011;8434;47.990;7.880;2023-05-07T10:13:27;4.20;;;3.80;;
16640;SDS011;8434;47.990;7.880;2023-05-07T10:16:16;3.25;;;2.95;;
16640;SDS011;8434;47.990;7.880;2023-05-07T10:19:07;3.45;;;3.15;;
16640;SDS011;8434;47.990;7.880;2023-05-07T10:21:54;5.38;;;3.70;;
16640;SDS011;8434;47.990;7.880;2023-05-07T10:24:41;4.30;;;3.70;;
16640;SDS011;8434;47.990;7.880;2023-05-07T10:27:33;4.03;;;3.63;;
16640;SDS011;8434;47.990;7.880;2023-05-07T10:30:22;6.40;;;3.73;;
16640;SDS011;8434;47.990;7.880;2023-05-07T10:33:10;4.93;;;3.60;;
16640;SDS011;8434;47.990;7.880;2023-05-07T10:36:01;7.03;;;5.20;;
16640;SDS011;8434;47.990;7.880;2023-05-07T10:38:49;6.33;;;4.67;;
16640;SDS011;8434;47.990;7.880;2023-05-07T10:41:34;7.40;;;4.63;;
16640;SDS011;8434;47.990;7.880;2023-05-07T10:44:26;6.77;;;4.67;;
16640;SDS011;8434;47.990;7.880;2023-05-07T10:47:14;5.00;;;4.47;;
16640;SDS011;8434;47.990;7.880;2023-05-07T10:53:22;6.83;;;4.70;;
16640;SDS011;8434;47.990;7.880;2023-05-07T10:56:27;4.53;;;3.87;;
16640;SDS011;8434;47.990;7.880;2023-05-07T10:59:32;6.93;;;3.87;;
16640;SDS011;8434;47.990;7.880;2023-05-07T11:05:43;4.90;;;3.60;;
16640;SDS011;8434;47.990;7.880;2023-05-07T11:08:56;6.22;;;3.78;;
16640;SDS011;8434;47.990;7.880;2023-05-07T11:12:05;4.10;;;3.70;;
16640;SDS011;8434;47.990;7.880;2023-05-07T11:15:00;4.78;;;4.13;;
16640;SDS011;8434;47.990;7.880;2023-05-07T11:17:54;3.75;;;3.45;;
16640;SDS011;8434;47.990;7.880;2023-05-07T11:20:48;4.47;;;3.70;;
16640;SDS011;8434;47.990;7.880;2023-05-07T11:23:59;4.68;;;3.75;;
16640;SDS011;8434;47.990;7.880;2023-05-07T11:26:51;4.18;;;3.22;;
16640;SDS011;8434;47.990;7.880;2023-05-07T11:29:39;4.15;;;3.70;;
16640;SDS011;8434;47.990;7.880;2023-05-07T11:32:29;6.72;;;3.90;;
16640;SDS011;8434;47.990;7.880;2023-05-07T11:35:15;4.43;;;3.25;;
16640;SDS011;8434;47.990;7.880;2023-05-07T11:38:01;4.82;;;3.80;;
16640;SDS011;8434;47.990;7.880;2023-05-07T11:40:51;5.38;;;3.40;;
16640;SDS011;8434;47.990;7.880;2023-05-07T11:43:37;4.55;;;4.15;;
16640;SDS011;8434;47.990;7.880;2023-05-07T11:46:24;4.57;;;3.53;;
16640;SDS011;8434;47.990;7.880;2023-05-07T11:49:09;6.75;;;4.05;;
16640;SDS011;8434;47.990;7.880;2023-05-07T11:51:55;3.95;;;3.40;;
16640;SDS011;8434;47.990;7.880;2023-05-07T11:54:41;4.68;;;3.65;;
16640;SDS011;8434;47.990;7.880;2023-05-07T11:57:28;5.22;;;3.47;;
16640;SDS011;8434;47.990;7.880;2023-05-07T12:00:15;4.93;;;3.17;;
16640;SDS011;8434;47.990;7.880;2023-05-07T12:03:02;3.97;;;3.58;;
16640;SDS011;8434;47.990;7.880;2023-05-07T12:05:48;3.25;;;3.05;;
16640;SDS011;8434;47.990;7.880;2023-05-07T12:08:35;4.10;;;3.67;;
16640;SDS011;8434;47.990;7.880;2023-05-07T12:11:22;4.60;;;3.63;;
16640;SDS011;8434;47.990;7.880;2023-05-07T12:14:09;3.70;;;3.40;;
16640;SDS011;8434;47.990;7.880;2023-05-07T12:16:54;4.88;;;3.55;;
16640;SDS011;8434;47.990;7.880;2023-05-07T12:19:42;3.70;;;3.40;;
16640;SDS011;8434;47.990;7.880;2023-05-07T12:22:38;5.20;;;3.72;;
16640;SDS011;8434;47.990;7.880;2023-05-07T12:25:23;3.90;;;3.35;;
16640;SDS011;8434;47.990;7.880;2023-05-07T12:28:12;4.10;;;3.42;;
16640;SDS011;8434;47.990;7.880;2023-05-07T12:30:59;3.63;;;3.33;;
16640;SDS011;8434;47.990;7.880;2023-05-07T12:33:45;3.38;;;3.08;;
16640;SDS011;8434;47.990;7.880;2023-05-07T12:36:36;3.67;;;3.38;;
16640;SDS011;8434;47.990;7.880;2023-05-07T12:39:21;4.25;;;3.00;;
16640;SDS011;8434;47.990;7.880;2023-05-07T12:42:07;4.45;;;3.40;;
16640;SDS011;8434;47.990;7.880;2023-05-07T12:44:52;4.05;;;3.50;;
16640;SDS011;8434;47.990;7.880;2023-05-07T12:47:39;5.30;;;3.35;;
16640;SDS011;8434;47.990;7.880;2023-05-07T12:50:30;4.05;;;3.65;;
16640;SDS011;8434;47.990;7.880;2023-05-07T12:53:15;4.38;;;3.60;;
16640;SDS011;8434;47.990;7.880;2023-05-07T12:56:01;4.38;;;3.50;;
16640;SDS011;8434;47.990;7.880;2023-05-07T12:58:48;4.60;;;3.10;;
16640;SDS011;8434;47.990;7.880;2023-05-07T13:01:33;3.88;;;3.47;;
16640;SDS011;8434;47.990;7.880;2023-05-07T13:04:20;3.42;;;3.13;;
16640;SDS011;8434;47.990;7.880;2023-05-07T13:07:05;4.75;;;2.78;;
16640;SDS011;8434;47.990;7.880;2023-05-07T13:09:51;4.80;;;3.65;;
16640;SDS011;8434;47.990;7.880;2023-05-07T13:12:36;3.47;;;3.15;;
16640;SDS011;8434;47.990;7.880;2023-05-07T13:15:22;3.30;;;3.00;;
16640;SDS011;8434;47.990;7.880;2023-05-07T13:18:07;4.57;;;2.97;;
16640;SDS011;8434;47.990;7.880;2023-05-07T13:20:56;3.72;;;2.60;;
16640;SDS011;8434;47.990;7.880;2023-05-07T13:23:42;3.10;;;2.75;;
16640;SDS011;8434;47.990;7.880;2023-05-07T13:26:27;6.00;;;3.00;;
16640;SDS011;8434;47.990;7.880;2023-05-07T13:29:13;4.30;;;3.10;;
16640;SDS011;8434;47.990;7.880;2023-05-07T13:31:58;4.32;;;3.00;;
16640;SDS011;8434;47.990;7.880;2023-05-07T13:34:44;4.95;;;3.17;;
16640;SDS011;8434;47.990;7.880;2023-05-07T13:37:30;5.57;;;3.20;;
16640;SDS011;8434;47.990;7.880;2023-05-07T13:40:16;4.10;;;2.97;;
16640;SDS011;8434;47.990;7.880;2023-05-07T13:43:01;3.67;;;3.00;;
16640;SDS011;8434;47.990;7.880;2023-05-07T13:45:47;4.95;;;3.33;;
16640;SDS011;8434;47.990;7.880;2023-05-07T13:48:32;4.07;;;3.15;;
16640;SDS011;8434;47.990;7.880;2023-05-07T13:51:18;5.97;;;2.85;;
16640;SDS011;8434;47.990;7.880;2023-05-07T13:54:05;5.13;;;3.40;;
16640;SDS011;8434;47.990;7.880;2023-05-07T13:56:50;3.85;;;3.28;;
16640;SDS011;8434;47.990;7.880;2023-05-07T13:59:36;3.25;;;2.80;;
16640;SDS011;8434;47.990;7.880;2023-05-07T14:02:21;5.22;;;3.10;;
16640;SDS011;8434;47.990;7.880;2023-05-07T14:05:06;3.15;;;2.92;;
16640;SDS011;8434;47.990;7.880;2023-05-07T14:07:53;5.45;;;2.88;;
16640;SDS011;8434;47.990;7.880;2023-05-07T14:10:40;4.35;;;3.08;;
16640;SDS011;8434;47.990;7.880;2023-05-07T14:13:25;3.67;;;3.15;;
16640;SDS011;8434;47.990;7.880;2023-05-07T14:16:11;5.20;;;3.80;;
16640;SDS011;8434;47.990;7.880;2023-05-07T14:18:57;3.80;;;3.17;;
16640;SDS011;8434;47.990;7.880;2023-05-07T14:21:42;5.10;;;3.90;;
16640;SDS011;8434;47.990;7.880;2023-05-07T14:24:28;6.38;;;3.63;;
16640;SDS011;8434;47.990;7.880;2023-05-07T14:27:14;5.30;;;3.60;;
16640;SDS011;8434;47.990;7.880;2023-05-07T14:30:00;3.42;;;3.15;;
16640;SDS011;8434;47.990;7.880;2023-05-07T14:32:45;4.05;;;3.15;;
16640;SDS011;8434;47.990;7.880;2023-05-07T14:35:30;3.28;;;2.97;;
16640;SDS011;8434;47.990;7.880;2023-05-07T14:38:16;3.75;;;3.38;;
16640;SDS011;8434;47.990;7.880;2023-05-07T14:41:01;4.45;;;3.28;;
16640;SDS011;8434;47.990;7.880;2023-05-07T14:43:48;3.67;;;3.38;;
16640;SDS011;8434;47.990;7.880;2023-05-07T14:46:34;3.58;;;3.03;;
16640;SDS011;8434;47.990;7.880;2023-05-07T14:49:20;3.22;;;2.78;;
16640;SDS011;8434;47.990;7.880;2023-05-07T14:52:05;3.08;;;2.78;;
16640;SDS011;8434;47.990;7.880;2023-05-07T14:54:52;5.25;;;3.00;;
16640;SDS011;8434;47.990;7.880;2023-05-07T14:57:37;2.50;;;2.30;;
16640;SDS011;8434;47.990;7.880;2023-05-07T15:00:52;2.50;;;2.30;;
16640;SDS011;8434;47.990;7.880;2023-05-07T15:03:37;2.65;;;2.45;;
16640;SDS011;8434;47.990;7.880;2023-05-07T15:06:23;2.60;;;2.40;;
16640;SDS011;8434;47.990;7.880;2023-05-07T15:09:09;2.85;;;2.50;;
16640;SDS011;8434;47.990;7.880;2023-05-07T15:11:55;2.72;;;2.42;;
16640;SDS011;8434;47.990;7.880;2023-05-07T15:14:40;3.10;;;2.28;;
16640;SDS011;8434;47.990;7.880;2023-05-07T15:17:27;2.95;;;1.83;;
16640;SDS011;8434;47.990;7.880;2023-05-07T15:20:12;1.98;;;1.77;;
16640;SDS011;8434;47.990;7.880;2023-05-07T15:22:57;1.50;;;1.40;;
16640;SDS011;8434;47.990;7.880;2023-05-07T15:25:43;2.40;;;1.77;;
16640;SDS011;8434;47.990;7.880;2023-05-07T15:28:28;2.50;;;1.77;;
16640;SDS011;8434;47.990;7.880;2023-05-07T15:31:16;2.22;;;1.50;;
16640;SDS011;8434;47.990;7.880;2023-05-07T15:34:02;2.15;;;1.40;;
16640;SDS011;8434;47.990;7.880;2023-05-07T15:36:48;1.63;;;1.50;;
16640;SDS011;8434;47.990;7.880;2023-05-07T15:39:33;1.90;;;1.60;;
16640;SDS011;8434;47.990;7.880;2023-05-07T15:42:19;2.22;;;1.60;;
16640;SDS011;8434;47.990;7.880;2023-05-07T15:45:05;1.52;;;1.30;;
16640;SDS011;8434;47.990;7.880;2023-05-07T15:47:50;2.35;;;1.58;;
16640;SDS011;8434;47.990;7.880;2023-05-07T15:50:37;1.40;;;1.30;;
16640;SDS011;8434;47.990;7.880;2023-05-07T15:53:22;3.17;;;1.70;;
16640;SDS011;8434;47.990;7.880;2023-05-07T15:56:08;2.22;;;1.50;;
16640;SDS011;8434;47.990;7.880;2023-05-07T15:58:53;3.30;;;1.45;;
16640;SDS011;8434;47.990;7.880;2023-05-07T16:01:39;2.40;;;1.73;;
16640;SDS011;8434;47.990;7.880;2023-05-07T16:04:25;3.90;;;1.60;;
16640;SDS011;8434;47.990;7.880;2023-05-07T16:07:13;3.10;;;2.10;;
16640;SDS011;8434;47.990;7.880;2023-05-07T16:09:58;2.00;;;1.63;;
16640;SDS011;8434;47.990;7.880;2023-05-07T16:12:44;1.80;;;1.65;;
16640;SDS011;8434;47.990;7.880;2023-05-07T16:15:29;1.88;;;1.77;;
16640;SDS011;8434;47.990;7.880;2023-05-07T16:18:15;2.72;;;1.80;;
16640;SDS011;8434;47.990;7.880;2023-05-07T16:21:00;3.20;;;1.98;;
16640;SDS011;8434;47.990;7.880;2023-05-07T16:23:47;3.03;;;1.80;;
16640;SDS011;8434;47.990;7.880;2023-05-07T16:26:33;2.80;;;1.55;;
16640;SDS011;8434;47.990;7.880;2023-05-07T16:29:19;1.40;;;1.23;;
16640;SDS011;8434;47.990;7.880;2023-05-07T16:32:06;1.70;;;1.30;;
16640;SDS011;8434;47.990;7.880;2023-05-07T16:34:51;1.83;;;1.40;;
16640;SDS011;8434;47.990;7.880;2023-05-07T16:37:38;1.48;;;1.38;;
16640;SDS011;8434;47.990;7.880;2023-05-07T16:40:25;2.85;;;1.70;;
16640;SDS011;8434;47.990;7.880;2023-05-07T16:43:11;2.35;;;1.67;;
16640;SDS011;8434;47.990;7.880;2023-05-07T16:45:57;4.75;;;1.73;;
16640;SDS011;8434;47.990;7.880;2023-05-07T16:48:42;1.75;;;1.65;;
16640;SDS011;8434;47.990;7.880;2023-05-07T16:51:28;3.03;;;1.70;;
16640;SDS011;8434;47.990;7.880;2023-05-07T16:54:13;2.63;;;1.40;;
16640;SDS011;8434;47.990;7.880;2023-05-07T16:57:00;4.57;;;2.30;;
16640;SDS011;8434;47.990;7.880;2023-05-07T16:59:46;5.72;;;2.97;;
16640;SDS011;8434;47.990;7.880;2023-05-07T17:02:32;2.08;;;1.90;;
16640;SDS011;8434;47.990;7.880;2023-05-07T17:05:18;3.05;;;2.47;;
16640;SDS011;8434;47.990;7.880;2023-05-07T17:08:04;1.58;;;1.48;;